sensor_id;sensor_type;location;lat;lon;timestamp;P1;durP1;ratioP1;P2;durP2;ratioP2
10493;SDS011;5294;49.410;8.698;2023-02-28T00:01:17;4.07;;;3.77;;
10493;SDS011;5294;49.410;8.698;2023-02-28T00:03:45;3.90;;;3.60;;
10493;SDS011;5294;49.410;8.698;2023-02-28T00:06:11;3.93;;;3.43;;
10493;SDS011;5294;49.410;8.698;2023-02-28T00:08:37;3.57;;;3.27;;
10493;SDS011;5294;49.410;8.698;2023-02-28T00:11:08;3.70;;;3.40;;
10493;SDS011;5294;49.410;8.698;2023-02-28T00:13:35;3.60;;;3.30;;
10493;SDS011;5294;49.410;8.698;2023-02-28T00:16:03;3.60;;;3.40;;
10493;SDS011;5294;49.410;8.698;2023-02-28T00:18:31;3.77;;;3.47;;
10493;SDS011;5294;49.410;8.698;2023-02-28T00:20:57;4.00;;;3.70;;
10493;SDS011;5294;49.410;8.698;2023-02-28T00:23:25;3.70;;;3.40;;
10493;SDS011;5294;49.410;8.698;2023-02-28T00:25:51;3.70;;;3.40;;
10493;SDS011;5294;49.410;8.698;2023-02-28T00:28:17;3.63;;;3.43;;
10493;SDS011;5294;49.410;8.698;2023-02-28T00:30:43;3.70;;;3.40;;
10493;SDS011;5294;49.410;8.698;2023-02-28T00:33:14;3.47;;;3.27;;
10493;SDS011;5294;49.410;8.698;2023-02-28T00:35:40;3.90;;;3.60;;
10493;SDS011;5294;49.410;8.698;2023-02-28T00:38:06;4.27;;;3.90;;
10493;SDS011;5294;49.410;8.698;2023-02-28T00:40:32;3.83;;;3.43;;
10493;SDS011;5294;49.410;8.698;2023-02-28T00:42:58;3.93;;;3.40;;
10493;SDS011;5294;49.410;8.698;2023-02-28T00:45:27;4.30;;;3.73;;
10493;SDS011;5294;49.410;8.698;2023-02-28T00:47:53;4.00;;;3.70;;
10493;SDS011;5294;49.410;8.698;2023-02-28T00:50:21;3.60;;;3.40;;
10493;SDS011;5294;49.410;8.698;2023-02-28T00:52:47;3.83;;;3.53;;
10493;SDS011;5294;49.410;8.698;2023-02-28T00:55:13;4.10;;;3.70;;
10493;SDS011;5294;49.410;8.698;2023-02-28T00:57:40;3.87;;;3.57;;
10493;SDS011;5294;49.410;8.698;2023-02-28T01:00:06;3.80;;;3.50;;
10493;SDS011;5294;49.410;8.698;2023-02-28T01:02:32;3.60;;;3.40;;
10493;SDS011;5294;49.410;8.698;2023-02-28T01:05:01;4.23;;;3.83;;
10493;SDS011;5294;49.410;8.698;2023-02-28T01:07:27;3.97;;;3.67;;
10493;SDS011;5294;49.410;8.698;2023-02-28T01:09:55;3.70;;;3.40;;
10493;SDS011;5294;49.410;8.698;2023-02-28T01:12:21;3.93;;;3.67;;
10493;SDS011;5294;49.410;8.698;2023-02-28T01:14:47;4.30;;;3.90;;
10493;SDS011;5294;49.410;8.698;2023-02-28T01:17:13;4.77;;;4.00;;
10493;SDS011;5294;49.410;8.698;2023-02-28T01:19:41;4.37;;;3.97;;
10493;SDS011;5294;49.410;8.698;2023-02-28T01:22:07;4.30;;;4.00;;
10493;SDS011;5294;49.410;8.698;2023-02-28T01:24:33;4.23;;;3.93;;
10493;SDS011;5294;49.410;8.698;2023-02-28T01:26:59;4.20;;;3.80;;
10493;SDS011;5294;49.410;8.698;2023-02-28T01:29:25;4.60;;;4.20;;
10493;SDS011;5294;49.410;8.698;2023-02-28T01:31:51;4.30;;;3.90;;
10493;SDS011;5294;49.410;8.698;2023-02-28T01:34:17;4.43;;;4.07;;
10493;SDS011;5294;49.410;8.698;2023-02-28T01:36:46;4.13;;;3.83;;
10493;SDS011;5294;49.410;8.698;2023-02-28T01:39:12;4.77;;;4.37;;
10493;SDS011;5294;49.410;8.698;2023-02-28T01:41:38;4.43;;;4.07;;
10493;SDS011;5294;49.410;8.698;2023-02-28T01:44:54;4.30;;;4.00;;
10493;SDS011;5294;49.410;8.698;2023-02-28T01:46:53;4.40;;;4.00;;
10493;SDS011;5294;49.410;8.698;2023-02-28T01:49:19;4.93;;;4.43;;
10493;SDS011;5294;49.410;8.698;2023-02-28T01:51:47;5.27;;;4.40;;
10493;SDS011;5294;49.410;8.698;2023-02-28T01:54:18;4.37;;;4.07;;
10493;SDS011;5294;49.410;8.698;2023-02-28T01:56:48;4.57;;;4.17;;
10493;SDS011;5294;49.410;8.698;2023-02-28T01:59:19;4.50;;;4.10;;
10493;SDS011;5294;49.410;8.698;2023-02-28T02:01:46;4.57;;;4.17;;
10493;SDS011;5294;49.410;8.698;2023-02-28T02:04:12;4.90;;;4.40;;
10493;SDS011;5294;49.410;8.698;2023-02-28T02:06:42;5.27;;;4.77;;
10493;SDS011;5294;49.410;8.698;2023-02-28T02:09:12;5.43;;;4.57;;
10493;SDS011;5294;49.410;8.698;2023-02-28T02:11:39;4.80;;;4.40;;
10493;SDS011;5294;49.410;8.698;2023-02-28T02:27:06;4.53;;;4.23;;
10493;SDS011;5294;49.410;8.698;2023-02-28T02:29:47;4.73;;;4.33;;
10493;SDS011;5294;49.410;8.698;2023-02-28T02:35:05;5.10;;;4.70;;
10493;SDS011;5294;49.410;8.698;2023-02-28T02:37:38;4.90;;;4.50;;
10493;SDS011;5294;49.410;8.698;2023-02-28T02:45:10;3.93;;;3.27;;
10493;SDS011;5294;49.410;8.698;2023-02-28T02:47:37;5.50;;;5.00;;
10493;SDS011;5294;49.410;8.698;2023-02-28T02:50:05;5.73;;;5.13;;
10493;SDS011;5294;49.410;8.698;2023-02-28T02:52:35;5.47;;;4.97;;
10493;SDS011;5294;49.410;8.698;2023-02-28T02:55:07;5.10;;;4.63;;
10493;SDS011;5294;49.410;8.698;2023-02-28T02:57:37;5.40;;;5.00;;
10493;SDS011;5294;49.410;8.698;2023-02-28T03:00:05;5.10;;;4.67;;
10493;SDS011;5294;49.410;8.698;2023-02-28T03:02:33;5.07;;;4.67;;
10493;SDS011;5294;49.410;8.698;2023-02-28T03:05:46;5.40;;;4.97;;
10493;SDS011;5294;49.410;8.698;2023-02-28T03:07:47;5.03;;;4.63;;
10493;SDS011;5294;49.410;8.698;2023-02-28T03:10:34;5.50;;;5.10;;
10493;SDS011;5294;49.410;8.698;2023-02-28T03:15:35;5.40;;;4.90;;
10493;SDS011;5294;49.410;8.698;2023-02-28T03:18:14;5.87;;;5.37;;
10493;SDS011;5294;49.410;8.698;2023-02-28T03:23:23;4.03;;;3.63;;
10493;SDS011;5294;49.410;8.698;2023-02-28T03:26:04;6.03;;;5.50;;
10493;SDS011;5294;49.410;8.698;2023-02-28T03:28:36;5.67;;;5.23;;
10493;SDS011;5294;49.410;8.698;2023-02-28T03:31:10;6.00;;;5.50;;
10493;SDS011;5294;49.410;8.698;2023-02-28T03:33:43;4.70;;;4.30;;
10493;SDS011;5294;49.410;8.698;2023-02-28T03:36:20;5.77;;;5.30;;
10493;SDS011;5294;49.410;8.698;2023-02-28T03:38:53;5.80;;;5.37;;
10493;SDS011;5294;49.410;8.698;2023-02-28T03:41:24;6.10;;;5.60;;
10493;SDS011;5294;49.410;8.698;2023-02-28T03:44:02;5.73;;;5.30;;
10493;SDS011;5294;49.410;8.698;2023-02-28T03:46:33;5.87;;;5.43;;
10493;SDS011;5294;49.410;8.698;2023-02-28T03:51:35;6.10;;;5.60;;
10493;SDS011;5294;49.410;8.698;2023-02-28T03:54:07;6.40;;;5.90;;
10493;SDS011;5294;49.410;8.698;2023-02-28T03:56:54;7.17;;;6.40;;
10493;SDS011;5294;49.410;8.698;2023-02-28T03:59:25;6.83;;;6.10;;
10493;SDS011;5294;49.410;8.698;2023-02-28T04:01:52;6.40;;;5.80;;
10493;SDS011;5294;49.410;8.698;2023-02-28T04:04:20;6.43;;;5.93;;
10493;SDS011;5294;49.410;8.698;2023-02-28T04:06:49;6.80;;;6.20;;
10493;SDS011;5294;49.410;8.698;2023-02-28T04:09:16;6.40;;;5.83;;
10493;SDS011;5294;49.410;8.698;2023-02-28T04:11:42;6.67;;;6.17;;
10493;SDS011;5294;49.410;8.698;2023-02-28T04:14:09;6.97;;;6.47;;
10493;SDS011;5294;49.410;8.698;2023-02-28T04:16:41;6.10;;;5.60;;
10493;SDS011;5294;49.410;8.698;2023-02-28T04:19:10;6.67;;;6.07;;
10493;SDS011;5294;49.410;8.698;2023-02-28T04:21:38;6.77;;;6.27;;
10493;SDS011;5294;49.410;8.698;2023-02-28T04:24:07;6.53;;;6.03;;
10493;SDS011;5294;49.410;8.698;2023-02-28T04:26:35;5.17;;;4.77;;
10493;SDS011;5294;49.410;8.698;2023-02-28T04:29:03;6.30;;;5.80;;
10493;SDS011;5294;49.410;8.698;2023-02-28T04:31:29;6.70;;;5.37;;
10493;SDS011;5294;49.410;8.698;2023-02-28T04:33:58;6.80;;;6.30;;
10493;SDS011;5294;49.410;8.698;2023-02-28T04:36:23;6.90;;;6.20;;
10493;SDS011;5294;49.410;8.698;2023-02-28T04:38:50;6.93;;;6.33;;
10493;SDS011;5294;49.410;8.698;2023-02-28T04:41:17;6.20;;;5.70;;
10493;SDS011;5294;49.410;8.698;2023-02-28T04:43:45;7.10;;;6.50;;
10493;SDS011;5294;49.410;8.698;2023-02-28T04:46:11;6.30;;;5.80;;
10493;SDS011;5294;49.410;8.698;2023-02-28T04:48:37;6.23;;;5.77;;
10493;SDS011;5294;49.410;8.698;2023-02-28T04:51:07;7.17;;;6.57;;
10493;SDS011;5294;49.410;8.698;2023-02-28T04:53:36;5.40;;;4.90;;
10493;SDS011;5294;49.410;8.698;2023-02-28T04:56:05;6.77;;;6.27;;
10493;SDS011;5294;49.410;8.698;2023-02-28T04:58:32;7.33;;;6.60;;
10493;SDS011;5294;49.410;8.698;2023-02-28T05:01:14;7.20;;;6.60;;
10493;SDS011;5294;49.410;8.698;2023-02-28T05:03:43;6.23;;;5.77;;
10493;SDS011;5294;49.410;8.698;2023-02-28T05:06:10;6.70;;;6.10;;
10493;SDS011;5294;49.410;8.698;2023-02-28T05:08:39;7.33;;;6.73;;
10493;SDS011;5294;49.410;8.698;2023-02-28T05:11:15;7.10;;;6.40;;
10493;SDS011;5294;49.410;8.698;2023-02-28T05:13:42;7.00;;;6.40;;
10493;SDS011;5294;49.410;8.698;2023-02-28T05:16:08;7.10;;;6.40;;
10493;SDS011;5294;49.410;8.698;2023-02-28T05:18:37;6.53;;;5.93;;
10493;SDS011;5294;49.410;8.698;2023-02-28T05:21:03;5.20;;;4.50;;
10493;SDS011;5294;49.410;8.698;2023-02-28T05:23:29;7.33;;;6.63;;
10493;SDS011;5294;49.410;8.698;2023-02-28T05:25:55;7.57;;;6.90;;
10493;SDS011;5294;49.410;8.698;2023-02-28T05:28:21;6.80;;;6.20;;
10493;SDS011;5294;49.410;8.698;2023-02-28T05:30:47;6.80;;;6.20;;
10493;SDS011;5294;49.410;8.698;2023-02-28T05:33:16;7.43;;;6.73;;
10493;SDS011;5294;49.410;8.698;2023-02-28T05:35:44;6.43;;;4.97;;
10493;SDS011;5294;49.410;8.698;2023-02-28T05:38:10;6.53;;;6.03;;
10493;SDS011;5294;49.410;8.698;2023-02-28T05:40:38;7.50;;;6.80;;
10493;SDS011;5294;49.410;8.698;2023-02-28T05:43:07;7.00;;;6.40;;
10493;SDS011;5294;49.410;8.698;2023-02-28T05:45:35;6.97;;;6.37;;
10493;SDS011;5294;49.410;8.698;2023-02-28T05:48:03;7.10;;;6.50;;
10493;SDS011;5294;49.410;8.698;2023-02-28T05:50:29;7.00;;;6.40;;
10493;SDS011;5294;49.410;8.698;2023-02-28T05:52:55;6.50;;;5.93;;
10493;SDS011;5294;49.410;8.698;2023-02-28T05:55:24;7.20;;;6.60;;
10493;SDS011;5294;49.410;8.698;2023-02-28T05:57:50;7.20;;;6.57;;
10493;SDS011;5294;49.410;8.698;2023-02-28T06:00:16;7.23;;;6.63;;
10493;SDS011;5294;49.410;8.698;2023-02-28T06:02:42;7.30;;;6.70;;
10493;SDS011;5294;49.410;8.698;2023-02-28T06:05:15;7.80;;;7.00;;
10493;SDS011;5294;49.410;8.698;2023-02-28T06:07:41;7.30;;;6.60;;
10493;SDS011;5294;49.410;8.698;2023-02-28T06:10:08;6.97;;;6.37;;
10493;SDS011;5294;49.410;8.698;2023-02-28T06:12:34;5.70;;;5.10;;
10493;SDS011;5294;49.410;8.698;2023-02-28T06:15:00;7.57;;;6.60;;
10493;SDS011;5294;49.410;8.698;2023-02-28T06:17:26;7.33;;;6.63;;
10493;SDS011;5294;49.410;8.698;2023-02-28T06:19:52;7.10;;;6.47;;
10493;SDS011;5294;49.410;8.698;2023-02-28T06:22:17;7.07;;;6.37;;
10493;SDS011;5294;49.410;8.698;2023-02-28T06:24:43;7.27;;;6.60;;
10493;SDS011;5294;49.410;8.698;2023-02-28T06:27:09;6.87;;;6.37;;
10493;SDS011;5294;49.410;8.698;2023-02-28T06:29:35;7.10;;;6.50;;
10493;SDS011;5294;49.410;8.698;2023-02-28T06:32:04;8.10;;;7.40;;
10493;SDS011;5294;49.410;8.698;2023-02-28T06:34:30;7.73;;;6.97;;
10493;SDS011;5294;49.410;8.698;2023-02-28T06:36:58;7.57;;;6.87;;
10493;SDS011;5294;49.410;8.698;2023-02-28T06:39:27;7.90;;;7.20;;
10493;SDS011;5294;49.410;8.698;2023-02-28T06:41:53;7.47;;;6.87;;
10493;SDS011;5294;49.410;8.698;2023-02-28T06:44:19;8.03;;;7.33;;
10493;SDS011;5294;49.410;8.698;2023-02-28T06:46:45;7.63;;;6.93;;
10493;SDS011;5294;49.410;8.698;2023-02-28T06:49:12;6.90;;;5.67;;
10493;SDS011;5294;49.410;8.698;2023-02-28T06:51:39;5.93;;;5.40;;
10493;SDS011;5294;49.410;8.698;2023-02-28T06:54:06;7.77;;;7.17;;
10493;SDS011;5294;49.410;8.698;2023-02-28T06:56:35;7.87;;;7.17;;
10493;SDS011;5294;49.410;8.698;2023-02-28T06:59:01;8.00;;;7.30;;
10493;SDS011;5294;49.410;8.698;2023-02-28T07:01:28;8.10;;;7.40;;
10493;SDS011;5294;49.410;8.698;2023-02-28T07:03:54;6.70;;;5.60;;
10493;SDS011;5294;49.410;8.698;2023-02-28T07:06:21;8.00;;;7.30;;
10493;SDS011;5294;49.410;8.698;2023-02-28T07:08:48;8.03;;;7.33;;
10493;SDS011;5294;49.410;8.698;2023-02-28T07:11:14;7.33;;;5.93;;
10493;SDS011;5294;49.410;8.698;2023-02-28T07:13:40;8.63;;;7.77;;
10493;SDS011;5294;49.410;8.698;2023-02-28T07:16:07;8.17;;;7.43;;
10493;SDS011;5294;49.410;8.698;2023-02-28T07:18:33;7.77;;;7.07;;
10493;SDS011;5294;49.410;8.698;2023-02-28T07:21:06;5.90;;;5.40;;
10493;SDS011;5294;49.410;8.698;2023-02-28T07:23:32;8.00;;;7.20;;
10493;SDS011;5294;49.410;8.698;2023-02-28T07:25:58;8.50;;;7.70;;
10493;SDS011;5294;49.410;8.698;2023-02-28T07:28:27;8.63;;;7.83;;
10493;SDS011;5294;49.410;8.698;2023-02-28T07:30:53;7.73;;;7.03;;
10493;SDS011;5294;49.410;8.698;2023-02-28T07:33:19;8.10;;;7.40;;
10493;SDS011;5294;49.410;8.698;2023-02-28T07:35:45;8.37;;;7.67;;
10493;SDS011;5294;49.410;8.698;2023-02-28T07:38:11;8.30;;;7.47;;
10493;SDS011;5294;49.410;8.698;2023-02-28T07:40:38;8.37;;;7.57;;
10493;SDS011;5294;49.410;8.698;2023-02-28T07:43:04;8.07;;;7.37;;
10493;SDS011;5294;49.410;8.698;2023-02-28T07:45:33;9.43;;;6.97;;
10493;SDS011;5294;49.410;8.698;2023-02-28T07:48:01;8.27;;;6.70;;
10493;SDS011;5294;49.410;8.698;2023-02-28T07:50:28;7.90;;;7.20;;
10493;SDS011;5294;49.410;8.698;2023-02-28T07:52:59;7.63;;;6.83;;
10493;SDS011;5294;49.410;8.698;2023-02-28T07:55:25;9.10;;;8.20;;
10493;SDS011;5294;49.410;8.698;2023-02-28T07:57:54;7.37;;;6.77;;
10493;SDS011;5294;49.410;8.698;2023-02-28T08:00:20;7.97;;;7.27;;
10493;SDS011;5294;49.410;8.698;2023-02-28T08:02:48;8.30;;;7.60;;
10493;SDS011;5294;49.410;8.698;2023-02-28T08:05:14;7.53;;;6.83;;
10493;SDS011;5294;49.410;8.698;2023-02-28T08:07:40;8.53;;;7.73;;
10493;SDS011;5294;49.410;8.698;2023-02-28T08:10:07;8.10;;;7.37;;
10493;SDS011;5294;49.410;8.698;2023-02-28T08:12:34;7.40;;;6.70;;
10493;SDS011;5294;49.410;8.698;2023-02-28T08:15:00;7.93;;;7.10;;
10493;SDS011;5294;49.410;8.698;2023-02-28T08:17:26;8.17;;;7.47;;
10493;SDS011;5294;49.410;8.698;2023-02-28T08:19:55;7.53;;;6.93;;
10493;SDS011;5294;49.410;8.698;2023-02-28T08:22:21;8.20;;;7.50;;
10493;SDS011;5294;49.410;8.698;2023-02-28T08:24:47;8.53;;;7.67;;
10493;SDS011;5294;49.410;8.698;2023-02-28T08:27:14;8.57;;;7.83;;
10493;SDS011;5294;49.410;8.698;2023-02-28T08:29:40;8.17;;;7.40;;
10493;SDS011;5294;49.410;8.698;2023-02-28T08:32:06;8.00;;;7.20;;
10493;SDS011;5294;49.410;8.698;2023-02-28T08:34:32;8.00;;;7.23;;
10493;SDS011;5294;49.410;8.698;2023-02-28T08:36:58;8.23;;;7.33;;
10493;SDS011;5294;49.410;8.698;2023-02-28T08:39:24;7.93;;;7.23;;
10493;SDS011;5294;49.410;8.698;2023-02-28T08:41:50;7.77;;;6.93;;
10493;SDS011;5294;49.410;8.698;2023-02-28T08:44:19;8.33;;;7.60;;
10493;SDS011;5294;49.410;8.698;2023-02-28T08:46:45;6.83;;;6.23;;
10493;SDS011;5294;49.410;8.698;2023-02-28T08:49:11;8.30;;;7.50;;
10493;SDS011;5294;49.410;8.698;2023-02-28T08:51:39;8.43;;;7.63;;
10493;SDS011;5294;49.410;8.698;2023-02-28T08:54:05;7.27;;;6.57;;
10493;SDS011;5294;49.410;8.698;2023-02-28T08:56:31;7.97;;;7.27;;
10493;SDS011;5294;49.410;8.698;2023-02-28T08:58:59;8.00;;;7.30;;
10493;SDS011;5294;49.410;8.698;2023-02-28T09:01:26;7.93;;;7.13;;
10493;SDS011;5294;49.410;8.698;2023-02-28T09:03:52;7.90;;;7.10;;
10493;SDS011;5294;49.410;8.698;2023-02-28T09:06:19;7.40;;;6.80;;
10493;SDS011;5294;49.410;8.698;2023-02-28T09:08:48;8.27;;;7.47;;
10493;SDS011;5294;49.410;8.698;2023-02-28T09:11:14;7.70;;;7.00;;
10493;SDS011;5294;49.410;8.698;2023-02-28T09:13:44;8.13;;;7.40;;
10493;SDS011;5294;49.410;8.698;2023-02-28T09:16:13;8.87;;;8.10;;
10493;SDS011;5294;49.410;8.698;2023-02-28T09:18:41;8.27;;;7.57;;
10493;SDS011;5294;49.410;8.698;2023-02-28T09:21:07;8.00;;;7.30;;
10493;SDS011;5294;49.410;8.698;2023-02-28T09:23:33;8.87;;;7.57;;
10493;SDS011;5294;49.410;8.698;2023-02-28T09:26:02;8.80;;;7.90;;
10493;SDS011;5294;49.410;8.698;2023-02-28T09:28:30;8.97;;;8.07;;
10493;SDS011;5294;49.410;8.698;2023-02-28T09:30:59;7.90;;;7.23;;
10493;SDS011;5294;49.410;8.698;2023-02-28T09:33:25;7.93;;;7.17;;
10493;SDS011;5294;49.410;8.698;2023-02-28T09:35:57;7.93;;;7.23;;
10493;SDS011;5294;49.410;8.698;2023-02-28T09:38:24;7.93;;;7.13;;
10493;SDS011;5294;49.410;8.698;2023-02-28T09:40:53;8.33;;;7.67;;
10493;SDS011;5294;49.410;8.698;2023-02-28T09:43:21;7.83;;;7.13;;
10493;SDS011;5294;49.410;8.698;2023-02-28T09:45:59;7.83;;;7.13;;
10493;SDS011;5294;49.410;8.698;2023-02-28T09:48:33;8.87;;;8.07;;
10493;SDS011;5294;49.410;8.698;2023-02-28T09:51:09;7.27;;;6.67;;
10493;SDS011;5294;49.410;8.698;2023-02-28T09:53:40;7.60;;;7.00;;
10493;SDS011;5294;49.410;8.698;2023-02-28T09:56:07;8.33;;;7.63;;
10493;SDS011;5294;49.410;8.698;2023-02-28T09:58:40;8.53;;;7.73;;
10493;SDS011;5294;49.410;8.698;2023-02-28T10:01:18;7.83;;;7.03;;
10493;SDS011;5294;49.410;8.698;2023-02-28T10:06:17;7.97;;;7.27;;
10493;SDS011;5294;49.410;8.698;2023-02-28T10:08:47;8.57;;;7.77;;
10493;SDS011;5294;49.410;8.698;2023-02-28T10:11:16;8.80;;;8.00;;
10493;SDS011;5294;49.410;8.698;2023-02-28T10:13:53;8.87;;;8.10;;
10493;SDS011;5294;49.410;8.698;2023-02-28T10:16:30;8.63;;;7.77;;
10493;SDS011;5294;49.410;8.698;2023-02-28T10:21:26;8.40;;;7.60;;
10493;SDS011;5294;49.410;8.698;2023-02-28T10:24:01;8.27;;;7.57;;
10493;SDS011;5294;49.410;8.698;2023-02-28T10:26:28;8.67;;;7.77;;
10493;SDS011;5294;49.410;8.698;2023-02-28T10:28:57;7.87;;;7.17;;
10493;SDS011;5294;49.410;8.698;2023-02-28T10:31:23;8.27;;;7.57;;
10493;SDS011;5294;49.410;8.698;2023-02-28T10:33:49;7.93;;;7.30;;
10493;SDS011;5294;49.410;8.698;2023-02-28T10:36:20;8.37;;;7.57;;
10493;SDS011;5294;49.410;8.698;2023-02-28T10:38:46;8.37;;;7.57;;
10493;SDS011;5294;49.410;8.698;2023-02-28T10:41:26;8.50;;;7.80;;
10493;SDS011;5294;49.410;8.698;2023-02-28T10:44:17;8.50;;;7.80;;
10493;SDS011;5294;49.410;8.698;2023-02-28T10:46:45;9.10;;;8.30;;
10493;SDS011;5294;49.410;8.698;2023-02-28T10:49:17;8.73;;;7.93;;
10493;SDS011;5294;49.410;8.698;2023-02-28T10:51:43;8.70;;;7.80;;
10493;SDS011;5294;49.410;8.698;2023-02-28T10:54:18;26.73;;;10.53;;
10493;SDS011;5294;49.410;8.698;2023-02-28T10:56:45;8.83;;;7.87;;
10493;SDS011;5294;49.410;8.698;2023-02-28T11:01:43;10.37;;;8.43;;
10493;SDS011;5294;49.410;8.698;2023-02-28T11:04:23;7.77;;;7.17;;
10493;SDS011;5294;49.410;8.698;2023-02-28T11:09:44;8.90;;;8.20;;
10493;SDS011;5294;49.410;8.698;2023-02-28T11:14:49;8.37;;;7.67;;
10493;SDS011;5294;49.410;8.698;2023-02-28T11:17:22;9.40;;;8.50;;
10493;SDS011;5294;49.410;8.698;2023-02-28T11:19:52;8.93;;;8.10;;
10493;SDS011;5294;49.410;8.698;2023-02-28T11:22:20;9.13;;;8.27;;
10493;SDS011;5294;49.410;8.698;2023-02-28T11:24:49;9.47;;;8.57;;
10493;SDS011;5294;49.410;8.698;2023-02-28T11:30:28;8.90;;;8.13;;
10493;SDS011;5294;49.410;8.698;2023-02-28T11:32:54;9.77;;;8.97;;
10493;SDS011;5294;49.410;8.698;2023-02-28T11:37:53;10.03;;;9.20;;
10493;SDS011;5294;49.410;8.698;2023-02-28T11:48:37;9.43;;;8.60;;
10493;SDS011;5294;49.410;8.698;2023-02-28T11:51:21;10.00;;;9.00;;
10493;SDS011;5294;49.410;8.698;2023-02-28T12:01:42;9.33;;;8.50;;
10493;SDS011;5294;49.410;8.698;2023-02-28T12:06:49;9.30;;;8.50;;
10493;SDS011;5294;49.410;8.698;2023-02-28T12:11:48;10.10;;;9.20;;
10493;SDS011;5294;49.410;8.698;2023-02-28T12:26:42;10.63;;;9.63;;
10493;SDS011;5294;49.410;8.698;2023-02-28T12:31:43;9.90;;;9.10;;
10493;SDS011;5294;49.410;8.698;2023-02-28T12:34:12;10.53;;;9.53;;
10493;SDS011;5294;49.410;8.698;2023-02-28T12:36:41;11.50;;;8.80;;
10493;SDS011;5294;49.410;8.698;2023-02-28T12:41:42;9.40;;;8.60;;
10493;SDS011;5294;49.410;8.698;2023-02-28T12:44:27;9.60;;;8.77;;
10493;SDS011;5294;49.410;8.698;2023-02-28T12:46:55;10.57;;;9.63;;
10493;SDS011;5294;49.410;8.698;2023-02-28T12:49:27;11.13;;;10.10;;
10493;SDS011;5294;49.410;8.698;2023-02-28T12:51:55;9.97;;;9.07;;
10493;SDS011;5294;49.410;8.698;2023-02-28T12:59:35;10.60;;;9.70;;
10493;SDS011;5294;49.410;8.698;2023-02-28T13:09:41;10.37;;;9.57;;
10493;SDS011;5294;49.410;8.698;2023-02-28T13:12:19;16.43;;;11.67;;
10493;SDS011;5294;49.410;8.698;2023-02-28T13:14:45;11.83;;;10.63;;
10493;SDS011;5294;49.410;8.698;2023-02-28T13:17:18;18.40;;;11.73;;
10493;SDS011;5294;49.410;8.698;2023-02-28T13:19:46;11.10;;;10.00;;
10493;SDS011;5294;49.410;8.698;2023-02-28T13:22:42;10.20;;;9.30;;
10493;SDS011;5294;49.410;8.698;2023-02-28T13:27:47;10.83;;;9.93;;
10493;SDS011;5294;49.410;8.698;2023-02-28T13:33:21;11.03;;;10.03;;
10493;SDS011;5294;49.410;8.698;2023-02-28T13:35:50;10.17;;;9.20;;
10493;SDS011;5294;49.410;8.698;2023-02-28T13:38:32;11.10;;;10.20;;
10493;SDS011;5294;49.410;8.698;2023-02-28T13:44:00;14.20;;;10.30;;
10493;SDS011;5294;49.410;8.698;2023-02-28T13:46:27;11.50;;;10.50;;
10493;SDS011;5294;49.410;8.698;2023-02-28T13:48:53;11.30;;;10.20;;
10493;SDS011;5294;49.410;8.698;2023-02-28T13:51:52;11.37;;;10.37;;
10493;SDS011;5294;49.410;8.698;2023-02-28T14:00:02;11.37;;;10.27;;
10493;SDS011;5294;49.410;8.698;2023-02-28T14:07:36;10.40;;;9.53;;
10493;SDS011;5294;49.410;8.698;2023-02-28T14:10:15;10.13;;;9.23;;
10493;SDS011;5294;49.410;8.698;2023-02-28T14:12:52;10.87;;;9.87;;
10493;SDS011;5294;49.410;8.698;2023-02-28T14:18:13;10.50;;;9.47;;
10493;SDS011;5294;49.410;8.698;2023-02-28T14:20:42;11.80;;;10.73;;
10493;SDS011;5294;49.410;8.698;2023-02-28T14:23:12;11.20;;;10.30;;
10493;SDS011;5294;49.410;8.698;2023-02-28T14:31:13;10.60;;;9.60;;
10493;SDS011;5294;49.410;8.698;2023-02-28T14:36:37;10.20;;;9.33;;
10493;SDS011;5294;49.410;8.698;2023-02-28T14:39:15;10.77;;;9.77;;
10493;SDS011;5294;49.410;8.698;2023-02-28T14:41:42;10.07;;;9.17;;
10493;SDS011;5294;49.410;8.698;2023-02-28T14:46:48;10.17;;;9.23;;
10493;SDS011;5294;49.410;8.698;2023-02-28T14:49:18;10.97;;;10.00;;
10493;SDS011;5294;49.410;8.698;2023-02-28T14:51:48;11.27;;;10.17;;
10493;SDS011;5294;49.410;8.698;2023-02-28T14:54:15;10.97;;;9.97;;
10493;SDS011;5294;49.410;8.698;2023-02-28T14:56:43;10.97;;;9.93;;
10493;SDS011;5294;49.410;8.698;2023-02-28T15:01:52;11.27;;;10.20;;
10493;SDS011;5294;49.410;8.698;2023-02-28T15:04:26;11.40;;;10.40;;
10493;SDS011;5294;49.410;8.698;2023-02-28T15:07:13;11.60;;;10.67;;
10493;SDS011;5294;49.410;8.698;2023-02-28T15:09:42;10.70;;;9.80;;
10493;SDS011;5294;49.410;8.698;2023-02-28T15:12:09;11.23;;;10.13;;
10493;SDS011;5294;49.410;8.698;2023-02-28T15:14:39;11.87;;;10.73;;
10493;SDS011;5294;49.410;8.698;2023-02-28T15:17:08;10.10;;;9.23;;
10493;SDS011;5294;49.410;8.698;2023-02-28T15:19:39;11.43;;;10.43;;
10493;SDS011;5294;49.410;8.698;2023-02-28T15:22:15;10.93;;;9.93;;
10493;SDS011;5294;49.410;8.698;2023-02-28T15:27:13;12.17;;;10.87;;
10493;SDS011;5294;49.410;8.698;2023-02-28T15:29:48;11.37;;;10.33;;
10493;SDS011;5294;49.410;8.698;2023-02-28T15:32:37;11.47;;;10.37;;
10493;SDS011;5294;49.410;8.698;2023-02-28T15:35:26;10.93;;;9.93;;
10493;SDS011;5294;49.410;8.698;2023-02-28T15:37:57;11.67;;;10.57;;
10493;SDS011;5294;49.410;8.698;2023-02-28T15:40:26;10.27;;;9.37;;
10493;SDS011;5294;49.410;8.698;2023-02-28T15:43:02;11.57;;;10.57;;
10493;SDS011;5294;49.410;8.698;2023-02-28T15:48:06;12.23;;;11.20;;
10493;SDS011;5294;49.410;8.698;2023-02-28T15:50:38;12.17;;;10.90;;
10493;SDS011;5294;49.410;8.698;2023-02-28T15:53:04;10.97;;;10.03;;
10493;SDS011;5294;49.410;8.698;2023-02-28T15:55:32;10.37;;;9.47;;
10493;SDS011;5294;49.410;8.698;2023-02-28T15:58:00;10.60;;;9.70;;
10493;SDS011;5294;49.410;8.698;2023-02-28T16:00:27;11.10;;;10.10;;
10493;SDS011;5294;49.410;8.698;2023-02-28T16:02:56;10.63;;;9.70;;
10493;SDS011;5294;49.410;8.698;2023-02-28T16:05:26;11.60;;;10.50;;
10493;SDS011;5294;49.410;8.698;2023-02-28T16:07:57;11.07;;;10.07;;
10493;SDS011;5294;49.410;8.698;2023-02-28T16:10:24;11.10;;;10.10;;
10493;SDS011;5294;49.410;8.698;2023-02-28T16:12:52;11.10;;;10.00;;
10493;SDS011;5294;49.410;8.698;2023-02-28T16:15:23;10.67;;;9.67;;
10493;SDS011;5294;49.410;8.698;2023-02-28T16:17:51;11.13;;;10.17;;
10493;SDS011;5294;49.410;8.698;2023-02-28T16:20:19;11.10;;;10.00;;
10493;SDS011;5294;49.410;8.698;2023-02-28T16:22:45;11.77;;;10.67;;
10493;SDS011;5294;49.410;8.698;2023-02-28T16:25:12;10.23;;;9.30;;
10493;SDS011;5294;49.410;8.698;2023-02-28T16:27:38;11.40;;;10.30;;
10493;SDS011;5294;49.410;8.698;2023-02-28T16:30:05;11.13;;;10.10;;
10493;SDS011;5294;49.410;8.698;2023-02-28T16:32:31;11.40;;;10.40;;
10493;SDS011;5294;49.410;8.698;2023-02-28T16:34:59;10.87;;;9.87;;
10493;SDS011;5294;49.410;8.698;2023-02-28T16:37:30;10.63;;;9.63;;
10493;SDS011;5294;49.410;8.698;2023-02-28T16:39:56;10.80;;;9.90;;
10493;SDS011;5294;49.410;8.698;2023-02-28T16:42:25;11.73;;;10.63;;
10493;SDS011;5294;49.410;8.698;2023-02-28T16:44:54;10.43;;;9.40;;
10493;SDS011;5294;49.410;8.698;2023-02-28T16:47:23;10.50;;;9.50;;
10493;SDS011;5294;49.410;8.698;2023-02-28T16:49:51;11.97;;;10.77;;
10493;SDS011;5294;49.410;8.698;2023-02-28T16:52:17;11.97;;;10.83;;
10493;SDS011;5294;49.410;8.698;2023-02-28T16:54:46;11.03;;;10.10;;
10493;SDS011;5294;49.410;8.698;2023-02-28T16:57:21;11.33;;;10.33;;
10493;SDS011;5294;49.410;8.698;2023-02-28T16:59:50;10.80;;;9.90;;
10493;SDS011;5294;49.410;8.698;2023-02-28T17:02:19;11.50;;;10.30;;
10493;SDS011;5294;49.410;8.698;2023-02-28T17:04:45;11.27;;;10.27;;
10493;SDS011;5294;49.410;8.698;2023-02-28T17:07:12;11.03;;;10.03;;
10493;SDS011;5294;49.410;8.698;2023-02-28T17:09:38;11.40;;;10.30;;
10493;SDS011;5294;49.410;8.698;2023-02-28T17:12:05;10.67;;;9.67;;
10493;SDS011;5294;49.410;8.698;2023-02-28T17:14:31;10.27;;;9.43;;
10493;SDS011;5294;49.410;8.698;2023-02-28T17:16:57;11.00;;;10.07;;
10493;SDS011;5294;49.410;8.698;2023-02-28T17:19:23;11.10;;;10.10;;
10493;SDS011;5294;49.410;8.698;2023-02-28T17:21:52;10.50;;;9.60;;
10493;SDS011;5294;49.410;8.698;2023-02-28T17:24:18;11.07;;;10.07;;
10493;SDS011;5294;49.410;8.698;2023-02-28T17:26:44;11.47;;;10.37;;